Time;durP1;ratioP1;P1;durP2;ratioP2;P2;SDS_P1;SDS_P2;PMS_P1;PMS_P2;Temp;Humidity;BMP_temperature;BMP_pressure;BME280_temperature;BME280_humidity;BME280_pressure;Samples;Min_cycle;Max_cycle;Signal;HPM_P1;HPM_P2
2024/01/14 00:01:56;;;;;;;37.17;20.30;;;;;;;-2.81;66.14;98924.13;5149603;27;20050;-69
2024/01/14 00:04:23;;;;;;;36.80;20.20;;;;;;;-2.58;66.18;98953.31;5149507;27;20054;-70
2024/01/14 00:06:50;;;;;;;38.08;21.85;;;;;;;-2.74;66.00;98931.84;5149764;27;20047;-71
2024/01/14 00:09:17;;;;;;;34.30;19.55;;;;;;;-2.66;66.27;98944.75;5149263;27;20050;-69
2024/01/14 00:11:43;;;;;;;37.65;20.42;;;;;;;-2.66;66.29;98947.34;5149323;27;20068;-70
2024/01/14 00:14:10;;;;;;;33.55;19.75;;;;;;;-2.67;66.36;98946.47;5149338;27;20047;-71
2024/01/14 00:16:38;;;;;;;33.00;17.75;;;;;;;-2.72;66.35;98947.38;5148099;27;20035;-70
2024/01/14 00:19:05;;;;;;;36.88;18.38;;;;;;;-2.71;66.28;98941.31;5148082;27;20083;-70
2024/01/14 00:21:32;;;;;;;36.08;18.73;;;;;;;-3.65;66.21;98803.78;5148623;27;20075;-71
2024/01/14 00:23:59;;;;;;;34.67;20.40;;;;;;;-2.75;66.42;98931.84;5148860;27;20238;-70
2024/01/14 00:26:28;;;;;;;38.63;18.90;;;;;;;-2.78;66.23;98945.69;5148817;27;20035;-70
2024/01/14 00:28:55;;;;;;;35.13;20.30;;;;;;;-2.77;66.38;98920.63;5149023;27;20096;-70
2024/01/14 00:31:22;;;;;;;35.28;20.27;;;;;;;-2.76;66.26;98905.06;5148969;27;20272;-70
2024/01/14 00:33:51;;;;;;;32.13;19.80;;;;;;;-2.77;66.22;98900.75;5148677;27;20068;-70
2024/01/14 00:36:17;;;;;;;34.00;17.55;;;;;;;-2.81;66.42;98909.41;5148573;27;20084;-70
2024/01/14 00:38:44;;;;;;;37.85;19.83;;;;;;;-2.84;66.44;98914.63;5148794;27;20053;-71
2024/01/14 00:41:11;;;;;;;36.40;19.63;;;;;;;-2.97;66.55;98884.50;5148545;27;20039;-70
2024/01/14 00:43:38;;;;;;;34.25;18.75;;;;;;;-2.81;66.52;98899.03;5147626;27;20049;-70
2024/01/14 00:46:05;;;;;;;31.90;18.38;;;;;;;-2.83;66.42;98920.69;5147918;27;20110;-70
2024/01/14 00:48:32;;;;;;;33.10;17.17;;;;;;;-2.85;66.48;98899.94;5148420;27;20043;-70
2024/01/14 00:51:00;;;;;;;33.65;19.75;;;;;;;-3.03;66.26;98866.41;5148479;27;20103;-70
2024/01/14 00:53:27;;;;;;;31.30;17.60;;;;;;;-2.85;66.20;98893.91;5148840;27;20043;-73
2024/01/14 00:55:53;;;;;;;35.95;19.60;;;;;;;-2.85;66.37;98899.09;5148587;27;20092;-71
2024/01/14 00:58:20;;;;;;;31.42;17.02;;;;;;;-2.85;66.36;98899.94;5148642;27;20047;-70
2024/01/14 01:00:47;;;;;;;33.72;18.35;;;;;;;-2.84;66.19;98903.41;5148456;27;20043;-71
2024/01/14 01:03:14;;;;;;;31.55;17.45;;;;;;;-3.18;66.25;98846.66;5148363;27;20065;-72
2024/01/14 01:05:40;;;;;;;32.20;16.48;;;;;;;-3.11;66.30;98852.63;5147177;27;20035;-71
2024/01/14 01:08:08;;;;;;;31.70;17.65;;;;;;;-2.91;66.30;98884.44;5148297;27;20065;-71
2024/01/14 01:10:35;;;;;;;30.33;17.40;;;;;;;-2.92;66.47;98881.84;5147952;27;20039;-70
2024/01/14 01:13:02;;;;;;;29.25;16.98;;;;;;;-2.89;66.23;98887.03;5146964;27;20073;-71
2024/01/14 01:15:28;;;;;;;31.50;18.13;;;;;;;-2.91;66.15;98894.81;5148144;27;20043;-71
2024/01/14 01:17:55;;;;;;;32.03;17.48;;;;;;;-2.93;66.42;98881.00;5148045;27;20078;-70
2024/01/14 01:20:22;;;;;;;29.25;15.73;;;;;;;-2.92;66.34;98879.25;5147840;27;20050;-71
2024/01/14 01:22:49;;;;;;;29.85;16.35;;;;;;;-2.94;66.43;98887.06;5150072;27;20072;-70
2024/01/14 01:25:17;;;;;;;32.65;17.70;;;;;;;-2.91;66.45;98868.88;5148025;27;20073;-71
2024/01/14 01:27:43;;;;;;;28.00;15.63;;;;;;;-2.90;66.41;98872.34;5147702;27;20051;-71
2024/01/14 01:30:10;;;;;;;35.47;18.50;;;;;;;-2.97;66.51;98855.97;5147838;27;20039;-71
2024/01/14 01:32:37;;;;;;;33.97;17.77;;;;;;;-2.97;66.63;98879.31;5147751;27;20275;-71
2024/01/14 01:35:04;;;;;;;35.75;18.70;;;;;;;-2.99;66.55;98881.91;5147599;27;20236;-70
2024/01/14 01:37:31;;;;;;;33.50;18.70;;;;;;;-2.95;66.62;98862.88;5146738;27;20035;-70
2024/01/14 01:39:58;;;;;;;29.20;16.90;;;;;;;-3.04;66.58;98839.59;5147571;27;20051;-70
2024/01/14 01:42:26;;;;;;;30.80;18.55;;;;;;;-3.00;66.78;98867.22;5147585;27;20100;-70
2024/01/14 01:44:54;;;;;;;31.40;16.90;;;;;;;-3.01;66.52;98854.28;5147321;27;20292;-70
2024/01/14 01:47:21;;;;;;;30.90;18.80;;;;;;;-3.21;66.67;98809.53;5147330;27;20039;-71
2024/01/14 01:49:48;;;;;;;29.60;16.63;;;;;;;-3.22;66.60;98800.03;5147531;27;20073;-72
2024/01/14 01:52:15;;;;;;;28.25;17.00;;;;;;;-3.01;66.73;98851.69;5147062;27;20295;-70
2024/01/14 01:54:43;;;;;;;33.25;17.90;;;;;;;-3.03;66.61;98854.28;5147707;27;20225;-71
2024/01/14 01:57:11;;;;;;;34.60;18.85;;;;;;;-3.03;66.66;98833.56;5147259;27;20092;-70
2024/01/14 01:59:40;;;;;;;28.27;16.60;;;;;;;-3.00;66.72;98835.25;5147299;27;20065;-70
2024/01/14 02:02:07;;;;;;;30.20;17.45;;;;;;;-3.02;66.67;98822.31;5147257;27;20229;-70
2024/01/14 02:04:33;;;;;;;33.30;17.83;;;;;;;-3.04;66.82;98837.00;5146973;27;20046;-70
2024/01/14 02:07:00;;;;;;;30.05;18.35;;;;;;;-3.06;66.67;98833.59;5147156;27;20088;-70
2024/01/14 02:09:27;;;;;;;32.17;18.38;;;;;;;-7.15;66.43;98118.94;5146738;27;20042;-70
2024/01/14 02:11:54;;;;;;;30.40;18.55;;;;;;;-3.05;66.85;98813.69;5146808;27;20060;-70
2024/01/14 02:14:21;;;;;;;31.85;17.88;;;;;;;-3.04;66.90;98824.06;5147191;27;20325;-69
2024/01/14 02:16:49;;;;;;;30.10;17.42;;;;;;;-3.46;66.84;98742.38;5147369;27;20039;-69
2024/01/14 02:19:16;;;;;;;29.27;17.73;;;;;;;-3.67;66.83;98701.94;5147068;27;20087;-70
2024/01/14 02:21:46;;;;;;;33.30;18.00;;;;;;;-3.05;66.94;98813.69;5146710;27;20219;-70
2024/01/14 02:24:24;;;;;;;29.73;18.42;;;;;;;-3.06;67.19;98812.84;5147249;27;20043;-70
2024/01/14 02:26:50;;;;;;;30.10;17.50;;;;;;;-3.06;67.00;98786.06;5146946;27;20245;-71
2024/01/14 02:29:18;;;;;;;30.58;18.17;;;;;;;-3.02;67.04;98830.09;5146941;27;20069;-70
2024/01/14 02:31:45;;;;;;;28.05;16.50;;;;;;;-3.04;67.18;98813.69;5145735;27;20280;-70
2024/01/14 02:34:12;;;;;;;34.67;18.95;;;;;;;-2.99;66.85;98809.31;5146640;28;20043;-69
2024/01/14 02:36:38;;;;;;;33.92;18.42;;;;;;;-2.97;66.77;98794.59;5146629;28;20049;-70
2024/01/14 02:39:05;;;;;;;30.80;18.27;;;;;;;-2.97;66.84;98797.19;5148249;28;20084;-70
2024/01/14 02:41:33;;;;;;;28.63;15.95;;;;;;;-3.20;66.60;98754.22;5128657;28;20077;-70
2024/01/14 02:44:00;;;;;;;30.30;17.92;;;;;;;-3.63;66.63;98682.91;5146783;28;20042;-69
2024/01/14 02:46:27;;;;;;;28.15;17.45;;;;;;;-3.54;66.67;98722.59;5146507;28;20039;-70
2024/01/14 02:48:54;;;;;;;26.15;15.48;;;;;;;-2.95;66.64;98803.22;5146816;28;20039;-70
2024/01/14 02:51:21;;;;;;;28.70;17.05;;;;;;;-2.92;66.63;98798.88;5146974;28;20039;-70
2024/01/14 02:53:48;;;;;;;29.98;16.42;;;;;;;-2.91;66.43;98782.44;5145648;28;20194;-70
2024/01/14 02:56:14;;;;;;;30.45;15.48;;;;;;;-2.90;66.43;98774.66;5146402;28;20047;-70
2024/01/14 02:58:42;;;;;;;29.55;16.45;;;;;;;-2.95;66.67;98764.34;5146618;28;20042;-70
2024/01/14 03:01:11;;;;;;;26.23;16.25;;;;;;;-2.90;66.68;98776.38;5146322;28;20043;-70
2024/01/14 03:03:38;;;;;;;32.65;17.90;;;;;;;-2.90;66.64;98753.06;5146576;28;20096;-70
2024/01/14 03:06:05;;;;;;;27.15;17.20;;;;;;;-2.93;66.63;98769.50;5146585;28;20043;-70
2024/01/14 03:08:32;;;;;;;26.67;15.70;;;;;;;-2.90;66.77;98761.69;5145463;28;20095;-70
2024/01/14 03:10:58;;;;;;;29.42;15.90;;;;;;;-2.89;66.61;98745.25;5146490;28;20051;-70
2024/01/14 03:13:26;;;;;;;26.98;16.30;;;;;;;-2.90;66.70;98743.53;5146115;28;20043;-70
2024/01/14 03:15:55;;;;;;;24.58;15.55;;;;;;;-2.91;66.66;98749.59;5146516;28;20039;-70
2024/01/14 03:18:21;;;;;;;25.85;14.93;;;;;;;-3.12;66.56;98711.81;5146455;28;20051;-70
2024/01/14 03:20:48;;;;;;;25.75;14.77;;;;;;;-2.85;66.54;98738.31;5147361;27;20055;-70
2024/01/14 03:23:15;;;;;;;28.35;15.82;;;;;;;-2.92;66.47;98734.91;5150382;27;20092;-70
2024/01/14 03:25:41;;;;;;;23.52;14.48;;;;;;;-2.85;66.43;98733.97;5149194;27;20088;-70
2024/01/14 03:28:08;;;;;;;29.35;15.70;;;;;;;-2.87;66.47;98732.28;5150273;27;20092;-70
2024/01/14 03:30:35;;;;;;;21.50;13.40;;;;;;;-2.87;66.51;98724.50;5150249;27;20053;-70
2024/01/14 03:33:03;;;;;;;23.58;14.52;;;;;;;-2.86;66.51;98718.44;5150101;27;20046;-70
2024/01/14 03:35:30;;;;;;;21.90;13.75;;;;;;;-2.85;66.33;98699.41;5150186;27;20051;-70
2024/01/14 03:37:56;;;;;;;25.17;14.32;;;;;;;-2.86;66.44;98721.88;5149036;27;20084;-69
2024/01/14 03:40:23;;;;;;;22.20;14.77;;;;;;;-2.86;66.66;98713.25;5149780;27;20050;-70
2024/01/14 03:42:50;;;;;;;21.10;12.43;;;;;;;-2.85;66.50;98713.22;5149997;27;20237;-70
2024/01/14 03:45:16;;;;;;;22.63;13.80;;;;;;;-2.87;66.60;98709.78;5149944;27;20042;-70
2024/01/14 03:47:43;;;;;;;22.00;13.15;;;;;;;-2.84;66.45;98712.34;5150222;27;20051;-70
2024/01/14 03:50:11;;;;;;;20.45;12.88;;;;;;;-2.86;66.38;98710.66;5149611;27;20043;-70
2024/01/14 03:52:38;;;;;;;18.15;10.35;;;;;;;-2.87;66.45;98709.78;5150119;27;20039;-69
2024/01/14 03:55:06;;;;;;;19.95;12.20;;;;;;;-2.86;66.59;98713.25;5150680;27;20043;-69
2024/01/14 03:57:32;;;;;;;22.15;12.27;;;;;;;-2.85;66.55;98715.81;5149648;27;20105;-70
2024/01/14 03:59:59;;;;;;;17.73;10.57;;;;;;;-2.85;66.65;98707.19;5149720;27;20042;-70
2024/01/14 04:02:26;;;;;;;18.85;11.43;;;;;;;-2.85;66.74;98705.44;5149660;27;20088;-70
2024/01/14 04:04:53;;;;;;;19.00;11.85;;;;;;;-2.97;66.55;98675.34;5148875;27;20102;-69
2024/01/14 04:07:21;;;;;;;20.17;12.25;;;;;;;-2.85;66.56;98695.06;5149498;27;20110;-70
2024/01/14 04:09:48;;;;;;;16.65;11.73;;;;;;;-2.85;66.88;98691.63;5149796;27;20054;-70
2024/01/14 04:12:14;;;;;;;15.93;9.25;;;;;;;-2.84;66.55;98708.91;5149422;27;20237;-70
2024/01/14 04:14:41;;;;;;;20.67;11.93;;;;;;;-2.85;66.67;98700.25;5148556;27;20038;-71
2024/01/14 04:17:08;;;;;;;14.95;9.40;;;;;;;-4.07;66.65;98491.75;5149340;27;20051;-70
2024/01/14 04:19:35;;;;;;;16.67;10.85;;;;;;;-2.81;66.65;98704.53;5149036;27;20042;-70
2024/01/14 04:22:01;;;;;;;19.98;11.00;;;;;;;-2.78;66.40;98707.09;5149031;27;20093;-70
2024/01/14 04:24:29;;;;;;;13.90;8.20;;;;;;;-2.76;66.48;98715.72;5148089;27;20319;-70
2024/01/14 04:26:56;;;;;;;15.35;9.63;;;;;;;-2.75;66.40;98712.25;5148897;27;20295;-70
2024/01/14 04:29:23;;;;;;;14.73;9.13;;;;;;;-2.75;66.35;98709.66;5149041;27;20054;-70
2024/01/14 04:31:49;;;;;;;14.52;8.88;;;;;;;-2.74;66.22;98703.59;5147750;27;20039;-70
2024/01/14 04:34:16;;;;;;;13.25;8.55;;;;;;;-2.72;66.35;98703.56;5148988;27;20244;-69
2024/01/14 04:36:42;;;;;;;13.50;8.63;;;;;;;-2.72;66.30;98675.03;5149029;27;20187;-70
2024/01/14 04:39:10;;;;;;;15.90;9.13;;;;;;;-2.73;66.45;98681.97;5148876;27;20051;-70
2024/01/14 04:41:38;;;;;;;14.25;8.57;;;;;;;-2.71;66.33;98682.78;5148626;27;20043;-70
2024/01/14 04:44:05;;;;;;;17.88;9.82;;;;;;;-2.69;66.46;98685.38;5148796;27;20104;-70
2024/01/14 04:46:32;;;;;;;14.65;8.52;;;;;;;-2.67;66.39;98668.03;5148794;27;20051;-71
2024/01/14 04:48:59;;;;;;;14.27;8.30;;;;;;;-2.69;66.35;98696.59;5148734;27;20051;-70
2024/01/14 04:51:25;;;;;;;11.30;7.50;;;;;;;-2.68;66.23;98692.28;5148341;27;20342;-70
2024/01/14 04:53:52;;;;;;;14.02;8.48;;;;;;;-2.65;66.34;98687.03;5147792;27;20080;-70
2024/01/14 04:56:19;;;;;;;14.45;8.55;;;;;;;-2.63;66.18;98685.28;5148578;27;20043;-70
2024/01/14 04:58:47;;;;;;;13.35;7.88;;;;;;;-2.86;66.03;98646.69;5147415;27;20298;-70
2024/01/14 05:01:13;;;;;;;12.25;7.45;;;;;;;-2.63;66.30;98674.91;5147754;27;20059;-70
2024/01/14 05:03:40;;;;;;;12.05;9.13;;;;;;;-2.64;66.44;98681.84;5148017;27;20176;-69
2024/01/14 05:06:07;;;;;;;11.68;7.15;;;;;;;-2.63;66.04;98678.38;5148268;27;20043;-70
2024/01/14 05:08:33;;;;;;;12.95;7.80;;;;;;;-2.58;66.23;98680.03;5148674;27;20072;-70
2024/01/14 05:11:00;;;;;;;12.65;7.00;;;;;;;-2.58;66.10;98690.41;5149321;27;20043;-70
2024/01/14 05:13:26;;;;;;;12.15;7.32;;;;;;;-2.58;66.35;98687.81;5148221;27;20291;-70
2024/01/14 05:15:54;;;;;;;12.82;7.78;;;;;;;-2.59;66.22;98684.38;5147926;27;20054;-70
2024/01/14 05:18:21;;;;;;;11.88;7.00;;;;;;;-2.73;66.20;98656.03;5147621;27;20046;-71
2024/01/14 05:20:48;;;;;;;10.88;7.15;;;;;;;-2.54;66.32;98669.59;5147844;27;20058;-71
2024/01/14 05:23:14;;;;;;;10.77;6.78;;;;;;;-2.54;65.94;98663.56;5147815;27;20043;-71
2024/01/14 05:25:41;;;;;;;11.48;6.78;;;;;;;-3.46;66.06;98552.41;5147781;27;20344;-71
2024/01/14 05:28:08;;;;;;;9.30;6.28;;;;;;;-2.55;66.33;98661.84;5148331;27;20046;-71
2024/01/14 05:30:35;;;;;;;9.27;6.45;;;;;;;-2.51;66.10;98666.97;5148211;27;20096;-70
2024/01/14 05:33:03;;;;;;;10.30;7.22;;;;;;;-2.50;66.33;98652.25;5146631;27;20075;-70
2024/01/14 05:35:30;;;;;;;9.65;6.32;;;;;;;-2.50;66.14;98650.53;5147902;27;20043;-70
2024/01/14 05:37:57;;;;;;;10.20;6.30;;;;;;;-2.51;66.34;98656.59;5148076;27;20095;-70
2024/01/14 05:40:24;;;;;;;10.48;7.40;;;;;;;-2.48;66.19;98642.72;5148049;27;20067;-71
2024/01/14 05:42:50;;;;;;;11.20;6.38;;;;;;;-2.47;66.44;98647.88;5147141;27;20035;-70
2024/01/14 05:45:17;;;;;;;8.93;6.15;;;;;;;-2.48;66.28;98645.31;5147766;27;20154;-70
2024/01/14 05:47:43;;;;;;;10.82;6.63;;;;;;;-2.46;66.21;98640.94;5147848;27;20043;-71
2024/01/14 05:50:12;;;;;;;9.70;5.95;;;;;;;-2.45;66.20;98627.09;5147544;27;20191;-71
2024/01/14 05:52:39;;;;;;;11.18;6.30;;;;;;;-2.47;66.24;98621.94;5147505;27;20168;-70
2024/01/14 05:55:06;;;;;;;12.15;6.97;;;;;;;-2.45;66.42;98620.16;5147756;27;20100;-71
2024/01/14 05:57:33;;;;;;;9.57;6.63;;;;;;;-2.41;66.27;98626.19;5147668;27;20035;-71
2024/01/14 06:00:00;;;;;;;9.23;6.05;;;;;;;-2.46;66.25;98615.88;5147376;27;20203;-70
2024/01/14 06:02:27;;;;;;;10.85;6.93;;;;;;;-2.44;66.36;98623.63;5147319;27;20191;-71
2024/01/14 06:04:54;;;;;;;7.32;6.07;;;;;;;-2.41;66.13;98628.78;5147335;27;20043;-71
2024/01/14 06:07:22;;;;;;;10.93;6.72;;;;;;;-2.42;66.33;98625.31;5147290;27;20185;-71
2024/01/14 06:09:49;;;;;;;8.07;5.63;;;;;;;-2.41;66.49;98616.66;5147222;27;20054;-71
2024/01/14 06:12:16;;;;;;;10.50;6.72;;;;;;;-2.39;66.57;98630.47;5146914;27;20039;-71
2024/01/14 06:14:42;;;;;;;10.85;7.90;;;;;;;-2.40;66.65;98622.69;5146422;27;20042;-71
2024/01/14 06:17:09;;;;;;;9.40;6.28;;;;;;;-2.43;66.54;98631.38;5146763;27;20122;-72
2024/01/14 06:19:36;;;;;;;9.30;5.82;;;;;;;-2.58;66.54;98579.72;5147078;27;20043;-71
2024/01/14 06:22:03;;;;;;;7.43;5.15;;;;;;;-2.58;66.41;98576.28;5146575;27;20099;-71
2024/01/14 06:24:31;;;;;;;7.85;5.88;;;;;;;-2.40;66.52;98623.56;5147044;27;20064;-71
2024/01/14 06:26:58;;;;;;;8.45;5.80;;;;;;;-2.58;66.62;98592.69;5147365;27;20229;-70
2024/01/14 06:29:25;;;;;;;8.65;5.68;;;;;;;-3.19;66.41;98476.03;5147093;27;20100;-71
2024/01/14 06:31:51;;;;;;;8.90;6.35;;;;;;;-2.34;66.47;98625.19;5147207;27;20067;-71
2024/01/14 06:34:18;;;;;;;8.68;5.38;;;;;;;-2.33;66.67;98607.00;5146880;27;20035;-70
2024/01/14 06:36:44;;;;;;;8.05;6.25;;;;;;;-2.33;66.55;98622.59;5146378;28;20314;-70
2024/01/14 06:39:11;;;;;;;8.18;5.50;;;;;;;-2.30;66.66;98599.19;5146876;28;20051;-70
2024/01/14 06:41:39;;;;;;;7.88;5.72;;;;;;;-2.30;66.69;98601.78;5146667;28;20291;-70
2024/01/14 06:44:06;;;;;;;8.10;5.45;;;;;;;-2.30;66.73;98587.94;5146582;28;20038;-70
2024/01/14 06:46:32;;;;;;;10.15;7.57;;;;;;;-2.36;66.43;98570.72;5146201;28;20191;-70
2024/01/14 06:48:59;;;;;;;9.93;6.35;;;;;;;-2.28;66.69;98599.16;5146783;28;20042;-71
2024/01/14 06:52:09;;;;;;;9.13;5.35;;;;;;;-2.26;66.68;98587.00;5144598;27;20119;-71
2024/01/14 06:54:39;;;;;;;9.75;6.10;;;;;;;-2.24;66.51;98593.03;5144045;28;20043;-70
2024/01/14 06:57:05;;;;;;;8.85;6.43;;;;;;;-2.20;66.66;98596.44;5144345;28;20187;-70
2024/01/14 06:59:32;;;;;;;9.38;6.65;;;;;;;-2.21;66.48;98586.94;5144236;28;20039;-70
2024/01/14 07:01:59;;;;;;;10.95;6.90;;;;;;;-2.20;66.61;98599.88;5143933;28;20307;-70
2024/01/14 07:06:45;;;;;;;8.70;5.90;;;;;;;-2.18;66.51;98600.72;5124477;27;20167;-70
2024/01/14 07:09:12;;;;;;;9.30;6.38;;;;;;;-2.20;66.59;98596.44;5123801;28;20051;-70
2024/01/14 07:11:39;;;;;;;9.73;6.10;;;;;;;-2.16;66.46;98598.97;5123469;28;20054;-70
2024/01/14 07:14:06;;;;;;;10.32;6.40;;;;;;;-2.17;66.50;98599.84;5123706;28;20097;-70
2024/01/14 07:16:32;;;;;;;8.73;6.00;;;;;;;-2.17;66.42;98589.47;5123648;28;20047;-70
2024/01/14 07:18:59;;;;;;;10.80;6.70;;;;;;;-2.15;66.52;98592.88;5123538;28;20044;-70
2024/01/14 07:21:26;;;;;;;9.80;6.40;;;;;;;-2.11;66.46;98594.53;5123799;28;20044;-71
2024/01/14 07:23:54;;;;;;;10.43;6.13;;;;;;;-2.09;66.36;98587.59;5123782;28;20062;-70
2024/01/14 07:26:20;;;;;;;8.20;6.32;;;;;;;-2.08;66.50;98585.84;5123169;28;20071;-70
2024/01/14 07:28:47;;;;;;;9.73;7.38;;;;;;;-2.07;66.12;98593.63;5123401;28;20291;-71
2024/01/14 07:31:16;;;;;;;10.52;8.13;;;;;;;-2.04;66.44;98582.31;5123413;28;20051;-70
2024/01/14 07:33:44;;;;;;;10.40;6.60;;;;;;;-2.05;66.33;98599.63;5123074;28;20048;-70
2024/01/14 07:36:11;;;;;;;10.88;7.10;;;;;;;-2.24;66.20;98556.69;5122967;28;20296;-70
2024/01/14 07:38:38;;;;;;;9.32;6.57;;;;;;;-2.06;66.15;98589.28;5122905;28;20040;-70
2024/01/14 07:41:06;;;;;;;9.43;6.55;;;;;;;-2.00;66.18;98599.56;5123139;28;20059;-70
2024/01/14 07:43:33;;;;;;;9.02;6.47;;;;;;;-2.00;66.03;98596.97;5123359;28;20039;-70
2024/01/14 07:46:00;;;;;;;9.30;6.60;;;;;;;-2.04;66.14;98583.19;5123321;28;20059;-70
2024/01/14 07:48:26;;;;;;;8.75;6.05;;;;;;;-1.96;66.01;98606.41;5121937;28;20051;-70
2024/01/14 07:50:54;;;;;;;9.90;6.75;;;;;;;-1.94;65.95;98596.00;5123033;28;20051;-70
2024/01/14 07:53:21;;;;;;;9.90;6.35;;;;;;;-1.91;65.83;98601.16;5122930;28;20046;-71
2024/01/14 07:55:49;;;;;;;10.05;6.05;;;;;;;-1.84;65.72;98597.56;5122895;28;20039;-70
2024/01/14 07:58:17;;;;;;;9.38;6.60;;;;;;;-1.75;65.72;98594.78;5121723;28;20062;-71
2024/01/14 08:00:44;;;;;;;9.70;6.80;;;;;;;-1.65;65.52;98605.00;5122815;28;20082;-71
2024/01/14 08:03:11;;;;;;;9.52;6.53;;;;;;;-1.78;65.11;98561.09;5122783;28;20040;-70
2024/01/14 08:05:39;;;;;;;9.63;6.65;;;;;;;-1.58;65.06;98571.97;5133898;28;20047;-70
2024/01/14 08:08:06;;;;;;;9.32;6.30;;;;;;;-1.31;64.58;98614.75;5142941;28;20047;-69
2024/01/14 08:10:33;;;;;;;9.35;6.15;;;;;;;-1.21;64.31;98598.09;5143233;28;20039;-71
2024/01/14 08:12:59;;;;;;;8.95;6.20;;;;;;;-1.13;64.15;98585.78;5142820;28;20129;-70
2024/01/14 08:15:27;;;;;;;9.27;6.53;;;;;;;-1.25;63.48;98544.44;5142990;28;20039;-70
2024/01/14 08:17:54;;;;;;;8.60;6.00;;;;;;;-0.92;63.30;98581.91;5129857;28;20357;-70
2024/01/14 08:20:21;;;;;;;8.57;6.30;;;;;;;-0.77;63.07;98573.78;5129579;28;20214;-70
2024/01/14 08:22:47;;;;;;;9.65;6.15;;;;;;;-0.69;62.59;98581.41;5129137;28;20052;-70
2024/01/14 08:25:14;;;;;;;7.75;5.63;;;;;;;-0.62;62.52;98580.38;5129019;28;20036;-70
2024/01/14 08:27:41;;;;;;;8.52;5.63;;;;;;;-0.39;62.22;98590.28;5129152;28;20043;-71
2024/01/14 08:30:08;;;;;;;7.50;5.65;;;;;;;-0.37;61.46;98594.56;5129014;28;20051;-71
2024/01/14 08:32:36;;;;;;;9.00;6.07;;;;;;;-0.42;61.65;98569.53;5128925;28;20088;-70
2024/01/14 08:35:03;;;;;;;7.82;5.13;;;;;;;-0.17;60.71;98603.66;5128814;28;20040;-70
2024/01/14 08:37:30;;;;;;;6.55;5.05;;;;;;;-0.36;60.70;98551.16;5129209;28;20101;-70
2024/01/14 08:39:57;;;;;;;7.82;5.40;;;;;;;0.03;60.71;98597.94;5128528;28;20054;-71
2024/01/14 08:42:23;;;;;;;8.80;5.80;;;;;;;0.07;60.21;98596.97;5128571;28;20307;-70
2024/01/14 08:44:50;;;;;;;6.85;4.95;;;;;;;0.15;59.99;98597.63;5128618;28;20104;-70
2024/01/14 08:47:17;;;;;;;7.07;5.10;;;;;;;0.28;59.55;98596.44;5128732;28;20051;-70
2024/01/14 08:49:45;;;;;;;7.95;5.57;;;;;;;0.28;59.48;98602.50;5110464;28;20226;-71
2024/01/14 08:52:12;;;;;;;7.88;5.38;;;;;;;-0.13;59.20;98501.94;5128344;28;20311;-71
2024/01/14 08:54:39;;;;;;;7.22;4.85;;;;;;;0.53;59.05;98614.88;5110818;28;20299;-70
2024/01/14 08:57:07;;;;;;;8.48;5.30;;;;;;;0.43;58.00;98670.78;5111366;28;20247;-70
2024/01/14 08:59:33;;;;;;;6.97;4.68;;;;;;;0.58;58.03;98593.00;5128492;28;20338;-70
2024/01/14 09:02:00;;;;;;;7.32;4.95;;;;;;;0.64;57.76;98589.38;5128467;28;20341;-70
2024/01/14 09:04:26;;;;;;;7.28;4.45;;;;;;;0.69;57.50;98600.53;5110722;28;20061;-71
2024/01/14 09:06:55;;;;;;;8.35;5.70;;;;;;;0.85;57.35;98590.53;5128223;28;20051;-70
2024/01/14 09:09:21;;;;;;;8.00;4.95;;;;;;;0.85;57.11;98591.41;5128356;28;20133;-71
2024/01/14 09:11:48;;;;;;;7.63;4.93;;;;;;;1.03;56.21;98576.97;5110323;28;20040;-71
2024/01/14 09:14:15;;;;;;;6.72;3.83;;;;;;;-0.16;56.17;98389.19;5128148;28;20104;-71
2024/01/14 09:16:42;;;;;;;6.97;4.50;;;;;;;1.00;56.38;98557.94;5128205;28;20032;-70
2024/01/14 09:19:08;;;;;;;6.50;4.55;;;;;;;1.26;55.77;98578.91;5128071;28;20295;-70
2024/01/14 09:21:35;;;;;;;6.38;4.10;;;;;;;1.49;55.48;98589.50;5127741;28;20070;-70
2024/01/14 09:24:03;;;;;;;6.53;4.45;;;;;;;1.64;54.91;98582.13;5128024;28;20077;-70
2024/01/14 09:26:30;;;;;;;7.22;5.03;;;;;;;1.45;54.72;98567.00;5128022;28;20039;-72
2024/01/14 09:28:56;;;;;;;7.60;4.65;;;;;;;1.73;54.28;98594.88;5126277;27;20048;-72
2024/01/14 09:31:23;;;;;;;7.22;4.95;;;;;;;1.80;54.69;98583.34;5127633;28;20040;-71
2024/01/14 09:33:55;;;;;;;5.50;4.22;;;;;;;1.88;54.55;98590.03;5127797;28;20043;-72
2024/01/14 09:36:22;;;;;;;8.57;4.80;;;;;;;1.93;53.88;98594.25;5127607;28;20070;-71
2024/01/14 09:38:49;;;;;;;7.07;4.68;;;;;;;0.98;53.93;98417.09;5127954;28;20044;-71
2024/01/14 09:41:26;;;;;;;7.35;4.93;;;;;;;2.18;53.64;98590.78;5126256;28;20308;-72
2024/01/14 09:43:53;;;;;;;6.57;4.47;;;;;;;2.15;53.29;98593.50;5127280;28;20353;-71
2024/01/14 09:46:20;;;;;;;6.47;4.38;;;;;;;2.31;53.37;98595.59;5127539;28;20314;-70
2024/01/14 09:48:48;;;;;;;7.03;4.70;;;;;;;1.62;53.36;98472.47;5127492;27;20114;-70
2024/01/14 09:51:17;;;;;;;7.60;4.45;;;;;;;1.45;52.80;98438.19;5127655;28;20284;-72
2024/01/14 09:53:44;;;;;;;6.85;4.55;;;;;;;2.47;52.90;98574.09;5126562;28;20035;-72
2024/01/14 09:56:13;;;;;;;6.85;5.00;;;;;;;2.52;52.49;98576.56;5127366;28;20039;-73
2024/01/14 09:58:42;;;;;;;6.63;4.47;;;;;;;2.55;52.37;98586.91;5127506;28;20055;-71
2024/01/14 10:01:10;;;;;;;6.97;4.40;;;;;;;2.58;52.09;98581.56;5126689;28;20047;-70
2024/01/14 10:03:37;;;;;;;6.63;4.47;;;;;;;2.55;52.14;98573.81;5126513;28;20043;-70
2024/01/14 10:06:05;;;;;;;7.85;5.25;;;;;;;2.72;52.07;98553.16;5126034;28;20100;-71
2024/01/14 10:08:32;;;;;;;6.30;4.45;;;;;;;2.79;51.88;98561.63;5126577;28;20059;-71
2024/01/14 10:11:03;;;;;;;7.00;5.30;;;;;;;2.21;51.49;98449.50;5126619;28;20066;-70
2024/01/14 10:13:31;;;;;;;7.95;5.57;;;;;;;3.07;51.58;98574.56;5126431;28;20287;-71
2024/01/14 10:16:01;;;;;;;7.03;4.35;;;;;;;3.12;50.81;98573.47;5126788;28;20292;-71
2024/01/14 10:18:28;;;;;;;8.63;5.85;;;;;;;3.17;51.12;98558.44;5127155;28;20049;-72
2024/01/14 10:20:55;;;;;;;9.02;5.25;;;;;;;3.08;50.71;98565.78;5126342;28;20055;-72
2024/01/14 10:23:23;;;;;;;7.50;4.90;;;;;;;3.01;51.05;98553.84;5126582;28;20185;-72
2024/01/14 10:25:48;;;;;;;7.10;4.25;;;;;;;3.11;50.80;98544.72;5126632;28;20366;-71
2024/01/14 10:28:15;;;;;;;6.53;5.03;;;;;;;3.15;50.31;98493.97;5126550;28;20055;-72
2024/01/14 10:30:42;;;;;;;7.38;4.80;;;;;;;3.33;50.66;98543.00;5126723;28;20054;-70
2024/01/14 10:33:10;;;;;;;8.45;5.03;;;;;;;3.36;50.21;98534.16;5125689;28;20040;-72
2024/01/14 10:35:39;;;;;;;6.60;4.32;;;;;;;3.35;50.13;98524.59;5126764;28;20036;-72
2024/01/14 10:38:05;;;;;;;6.63;4.50;;;;;;;3.38;50.25;98527.97;5126692;28;20404;-72
2024/01/14 10:40:32;;;;;;;6.80;4.35;;;;;;;3.29;50.18;98515.22;5126227;28;20183;-72
2024/01/14 10:43:02;;;;;;;6.95;5.15;;;;;;;3.32;49.81;98515.09;5126692;28;20043;-72
2024/01/14 10:45:28;;;;;;;6.95;4.90;;;;;;;2.60;49.74;98408.84;5126179;28;20047;-73
2024/01/14 10:47:58;;;;;;;6.13;4.68;;;;;;;3.39;49.30;98505.22;5126405;28;20084;-72
2024/01/14 10:50:28;;;;;;;7.00;4.13;;;;;;;3.44;49.32;98505.91;5126525;28;20107;-72
2024/01/14 10:52:58;;;;;;;6.53;3.95;;;;;;;3.60;49.68;98501.75;5126118;28;20110;-73
2024/01/14 10:55:34;;;;;;;6.72;4.25;;;;;;;3.48;49.28;98491.78;5126112;28;20235;-72
2024/01/14 10:58:05;;;;;;;6.70;4.72;;;;;;;3.49;49.19;98496.09;5126070;28;20215;-72
2024/01/14 11:00:35;;;;;;;5.10;4.05;;;;;;;3.47;48.92;98496.16;5125909;28;20100;-73
2024/01/14 11:03:05;;;;;;;7.13;4.63;;;;;;;3.71;49.05;98493.47;5124728;28;20055;-72
2024/01/14 11:05:35;;;;;;;8.32;5.00;;;;;;;3.73;48.68;98478.53;5125658;28;20108;-72
2024/01/14 11:08:03;;;;;;;6.82;4.38;;;;;;;3.78;48.48;98482.66;5125298;28;20067;-72
2024/01/14 11:10:32;;;;;;;8.60;4.60;;;;;;;3.84;48.26;98481.56;5126510;28;20285;-72
2024/01/14 11:13:11;;;;;;;7.90;5.18;;;;;;;3.80;48.16;98475.59;5125516;28;20054;-72
2024/01/14 11:15:46;;;;;;;6.50;4.80;;;;;;;3.92;48.59;98470.75;5126275;28;20043;-74
2024/01/14 11:18:19;;;;;;;8.20;5.40;;;;;;;3.83;48.48;98432.66;5125650;28;20047;-72
2024/01/14 11:20:54;;;;;;;8.68;5.85;;;;;;;4.18;47.94;98450.34;5126040;28;20049;-72
2024/01/14 11:23:21;;;;;;;;;;;;;;;4.16;47.58;98448.72;5126347;28;20044;-72
2024/01/14 11:25:49;;;;;;;6.70;4.93;;;;;;;4.00;47.72;98463.41;5125849;28;19923;-72
2024/01/14 11:28:16;;;;;;;8.20;5.15;;;;;;;3.97;47.85;98468.78;5125852;28;20089;-72
2024/01/14 11:30:50;;;;;;;9.68;5.97;;;;;;;3.87;47.69;98428.16;5125234;28;20039;-73
2024/01/14 11:33:39;;;;;;;7.13;5.32;;;;;;;4.14;47.50;98443.53;5125684;28;20365;-73